createdAt,value
2022-08-11T00:01:07.792Z,61.90
2022-08-11T00:06:06.143Z,61.70
2022-08-11T00:11:08.009Z,61.90
2022-08-11T00:16:15.291Z,61.70
2022-08-11T00:21:14.361Z,62.20
2022-08-11T00:26:13.688Z,62.50
2022-08-11T00:31:25.263Z,62.40
2022-08-11T00:36:29.627Z,62.20
2022-08-11T00:41:35.351Z,62.70
2022-08-11T00:46:47.178Z,62.90
2022-08-11T00:52:05.661Z,62.90
2022-08-11T00:57:43.199Z,63.10
2022-08-11T01:03:08.125Z,63.00
2022-08-11T01:08:57.806Z,63.70
2022-08-11T01:14:34.152Z,63.60
2022-08-11T01:20:45.645Z,63.90
2022-08-11T01:26:02.294Z,64.60
2022-08-11T01:31:57.842Z,64.40
2022-08-11T01:37:28.346Z,64.50
2022-08-11T01:43:19.897Z,65.30
2022-08-11T01:48:26.201Z,65.30
2022-08-11T01:53:35.742Z,66.50
2022-08-11T01:58:44.474Z,66.90
2022-08-11T02:03:51.206Z,66.80
2022-08-11T02:08:56.797Z,66.70
2022-08-11T02:14:03.976Z,67.00
2022-08-11T02:19:29.768Z,67.10
2022-08-11T02:24:32.263Z,67.20
2022-08-11T02:29:42.391Z,67.50
2022-08-11T02:35:00.115Z,68.20
2022-08-11T02:40:15.707Z,68.40
2022-08-11T02:45:47.315Z,68.20
2022-08-11T02:51:00.721Z,68.50
2022-08-11T02:56:08.717Z,69.20
2022-08-11T03:01:16.629Z,69.40
2022-08-11T03:06:27.972Z,69.80
2022-08-11T03:12:04.098Z,69.80
2022-08-11T03:17:11.291Z,70.90
2022-08-11T03:22:14.503Z,70.60
2022-08-11T03:27:25.163Z,71.80
2022-08-11T03:32:30.582Z,71.50
2022-08-11T03:37:52.329Z,71.90
2022-08-11T03:42:59.367Z,71.80
2022-08-11T03:48:09.841Z,73.30
2022-08-11T03:53:17.789Z,73.00
2022-08-11T03:59:06.451Z,73.20
2022-08-11T04:04:51.437Z,72.90
2022-08-11T04:10:23.149Z,73.80
2022-08-11T04:16:12.219Z,73.90
2022-08-11T04:21:38.759Z,74.20
2022-08-11T04:27:08.810Z,75.50
2022-08-11T04:32:32.586Z,75.50
2022-08-11T04:37:58.254Z,76.10
2022-08-11T04:44:02.728Z,76.20
2022-08-11T04:49:36.882Z,77.10
2022-08-11T04:55:18.728Z,77.90
2022-08-11T05:00:37.353Z,78.20
2022-08-11T05:05:56.454Z,79.20
2022-08-11T05:11:12.939Z,79.90
2022-08-11T05:16:36.354Z,79.90
2022-08-11T05:21:53.865Z,80.70
2022-08-11T05:27:15.653Z,80.30
2022-08-11T05:32:36.037Z,80.20
2022-08-11T05:37:41.740Z,81.00
2022-08-11T05:43:02.971Z,80.90
2022-08-11T05:48:18.962Z,81.00
2022-08-11T05:53:45.810Z,81.20
2022-08-11T05:58:50.927Z,81.40
2022-08-11T06:04:09.366Z,81.20
2022-08-11T06:09:08.894Z,81.10
2022-08-11T06:14:10.663Z,81.00
2022-08-11T06:19:10.397Z,81.20
2022-08-11T06:24:14.292Z,81.70
2022-08-11T06:29:18.582Z,81.50
2022-08-11T06:34:30.153Z,80.30
2022-08-11T06:39:34.977Z,80.00
2022-08-11T06:44:41.903Z,80.50
2022-08-11T06:50:03.076Z,79.90
2022-08-11T06:55:06.703Z,80.40
2022-08-11T07:00:25.329Z,80.10
2022-08-11T07:05:29.987Z,78.90
2022-08-11T07:11:05.254Z,78.30
2022-08-11T07:16:12.485Z,78.50
2022-08-11T07:22:01.887Z,77.00
2022-08-11T07:27:13.718Z,77.50
2022-08-11T07:32:23.297Z,77.40
2022-08-11T07:37:24.008Z,76.00
2022-08-11T07:42:27.782Z,75.30
2022-08-11T07:47:46.109Z,74.00
2022-08-11T07:52:44.696Z,73.40
2022-08-11T07:58:19.194Z,73.10
2022-08-11T08:03:37.327Z,73.10
2022-08-11T08:08:54.982Z,72.00
2022-08-11T08:14:12.168Z,70.70
2022-08-11T08:19:13.878Z,70.00
2022-08-11T08:24:12.807Z,69.90
2022-08-11T08:29:28.869Z,68.20
2022-08-11T08:34:29.230Z,68.70
2022-08-11T08:39:33.649Z,67.10
2022-08-11T08:44:40.640Z,67.70
2022-08-11T08:49:49.369Z,64.90
2022-08-11T08:54:50.615Z,63.60
2022-08-11T08:59:51.515Z,64.00
2022-08-11T09:04:51.486Z,62.10
2022-08-11T09:09:51.137Z,60.80
2022-08-11T09:15:04.360Z,59.80
2022-08-11T09:20:07.231Z,57.80
2022-08-11T09:25:19.806Z,56.50
2022-08-11T09:30:17.859Z,54.30
2022-08-11T09:35:18.063Z,53.20
2022-08-11T09:40:33.500Z,51.20
2022-08-11T09:45:40.307Z,49.10
2022-08-11T09:50:41.051Z,47.80
2022-08-11T09:55:39.970Z,45.20
2022-08-11T10:00:40.237Z,43.70
2022-08-11T10:05:58.606Z,43.00
2022-08-11T10:10:57.715Z,44.30
2022-08-11T10:16:14.808Z,44.30
2022-08-11T10:21:28.214Z,44.80
2022-08-11T10:26:46.891Z,45.40
2022-08-11T10:32:04.636Z,45.00
2022-08-11T10:37:14.977Z,42.80
2022-08-11T10:42:55.342Z,44.00
2022-08-11T10:47:50.064Z,43.10
2022-08-11T10:53:08.924Z,44.00
2022-08-11T10:58:24.733Z,43.80
2022-08-11T11:03:23.996Z,43.80
2022-08-11T11:08:49.546Z,43.10
2022-08-11T11:14:10.709Z,43.60
2022-08-11T11:19:11.232Z,43.20
2022-08-11T11:24:22.768Z,42.80
2022-08-11T11:29:47.246Z,41.50
2022-08-11T11:35:09.016Z,42.00
2022-08-11T11:40:12.741Z,42.00
2022-08-11T11:45:22.828Z,41.40
2022-08-11T11:50:31.458Z,41.60
2022-08-11T11:55:33.830Z,41.60
2022-08-11T12:00:50.119Z,41.50
2022-08-11T12:05:48.763Z,41.80
2022-08-11T12:11:15.045Z,41.80
2022-08-11T12:16:35.015Z,41.80
2022-08-11T12:21:33.363Z,43.00
2022-08-11T12:27:14.938Z,44.30
2022-08-11T12:32:12.153Z,42.50
2022-08-11T12:37:13.673Z,42.00
2022-08-11T12:42:34.585Z,42.90
2022-08-11T12:48:12.272Z,42.50
2022-08-11T12:53:13.762Z,42.40
2022-08-11T12:58:17.430Z,42.10
2022-08-11T13:03:34.051Z,41.30
2022-08-11T13:08:36.446Z,41.30
2022-08-11T13:13:54.949Z,41.80
2022-08-11T13:18:54.754Z,40.70
2022-08-11T13:24:00.485Z,40.90
2022-08-11T13:29:02.127Z,41.10
2022-08-11T13:39:04.372Z,40.00
2022-08-11T13:44:04.339Z,39.90
2022-08-11T13:49:03.059Z,39.50
2022-08-11T13:54:04.235Z,39.90
2022-08-11T13:59:05.207Z,39.30
2022-08-11T14:04:30.646Z,40.00
2022-08-11T14:09:31.158Z,39.70
2022-08-11T14:14:35.478Z,39.30
2022-08-11T14:19:36.567Z,38.80
2022-08-11T14:24:36.239Z,38.50
2022-08-11T14:29:46.308Z,38.30
2022-08-11T14:34:47.293Z,38.50
2022-08-11T14:39:48.024Z,38.60
2022-08-11T14:45:07.461Z,37.40
2022-08-11T14:50:11.587Z,37.50
2022-08-11T14:55:29.507Z,36.00
2022-08-11T15:00:29.127Z,37.10
2022-08-11T15:05:28.070Z,36.30
2022-08-11T15:10:26.659Z,36.40
2022-08-11T15:15:44.017Z,36.20
2022-08-11T15:21:01.414Z,37.00
2022-08-11T15:26:01.595Z,36.40
2022-08-11T15:31:19.326Z,36.60
2022-08-11T15:36:36.590Z,35.70
2022-08-11T15:41:58.978Z,36.20
2022-08-11T15:47:01.842Z,36.20
2022-08-11T15:52:04.752Z,36.10
2022-08-11T15:57:05.512Z,35.40
2022-08-11T16:02:23.640Z,35.50
2022-08-11T16:07:27.709Z,35.10
2022-08-11T16:12:30.268Z,35.20
2022-08-11T16:17:31.801Z,34.70
2022-08-11T16:22:39.361Z,35.40
2022-08-11T16:27:43.570Z,35.20
2022-08-11T16:32:44.532Z,34.70
2022-08-11T16:38:03.158Z,35.50
2022-08-11T16:43:19.618Z,34.30
2022-08-11T16:48:35.868Z,34.70
2022-08-11T16:53:48.827Z,34.20
2022-08-11T16:59:17.718Z,34.30
2022-08-11T17:04:39.553Z,34.00
2022-08-11T17:09:57.145Z,33.80
2022-08-11T17:14:59.032Z,34.10
2022-08-11T17:20:38.666Z,35.40
2022-08-11T17:25:21.216Z,34.70
2022-08-11T17:30:19.516Z,34.50
2022-08-11T17:35:31.996Z,34.40
2022-08-11T17:40:33.594Z,34.50
2022-08-11T17:45:55.659Z,34.80
2022-08-11T17:50:56.397Z,35.40
2022-08-11T17:56:14.052Z,35.20
2022-08-11T18:01:13.682Z,36.20
2022-08-11T18:06:13.731Z,36.10
2022-08-11T18:12:06.768Z,36.40
2022-08-11T18:17:08.183Z,36.80
2022-08-11T18:22:27.388Z,37.10
2022-08-11T18:27:48.775Z,37.20
2022-08-11T18:33:45.201Z,37.80
2022-08-11T18:38:46.935Z,38.40
2022-08-11T18:44:06.438Z,38.70
2022-08-11T18:49:33.131Z,39.00
2022-08-11T18:55:06.987Z,39.70
2022-08-11T19:00:29.043Z,39.60
2022-08-11T19:06:08.397Z,39.80
2022-08-11T19:11:22.452Z,40.20
2022-08-11T19:16:43.069Z,40.70
2022-08-11T19:22:00.223Z,40.80
2022-08-11T19:27:17.151Z,40.60
2022-08-11T19:32:35.067Z,41.20
2022-08-11T19:37:51.706Z,41.60
2022-08-11T19:43:14.880Z,41.90
2022-08-11T19:48:42.914Z,42.20
2022-08-11T19:53:59.153Z,42.80
2022-08-11T19:59:16.419Z,43.20
2022-08-11T20:04:33.399Z,43.20
2022-08-11T20:10:06.036Z,43.40
2022-08-11T20:15:24.003Z,44.50
2022-08-11T20:20:43.718Z,44.40
2022-08-11T20:26:14.209Z,44.60
2022-08-11T20:31:36.622Z,44.70
2022-08-11T20:36:55.942Z,44.90
2022-08-11T20:42:13.132Z,45.40
2022-08-11T20:47:30.437Z,46.10
2022-08-11T20:52:50.292Z,46.00
2022-08-11T20:58:07.051Z,45.90
2022-08-11T21:03:36.347Z,46.90
2022-08-11T21:09:02.610Z,46.40
2022-08-11T21:14:22.470Z,46.60
2022-08-11T21:20:00.491Z,47.10
2022-08-11T21:25:23.533Z,47.20
2022-08-11T21:30:39.291Z,47.20
2022-08-11T21:35:55.423Z,47.10
2022-08-11T21:41:13.052Z,48.00
2022-08-11T21:46:29.461Z,48.50
2022-08-11T21:51:49.419Z,48.80
2022-08-11T21:57:07.284Z,49.70
2022-08-11T22:02:23.197Z,50.40
2022-08-11T22:07:41.091Z,51.10
2022-08-11T22:12:58.000Z,51.40
2022-08-11T22:18:13.337Z,51.70
2022-08-11T22:23:35.242Z,51.50
2022-08-11T22:28:53.103Z,51.90
2022-08-11T22:34:08.355Z,52.40
2022-08-11T22:39:26.136Z,52.20
2022-08-11T22:44:43.232Z,52.50
2022-08-11T22:50:00.419Z,53.10
2022-08-11T22:55:17.063Z,53.30
2022-08-11T23:00:35.458Z,53.80
2022-08-11T23:05:52.532Z,54.00
2022-08-11T23:11:09.294Z,54.20
2022-08-11T23:16:26.840Z,54.60
2022-08-11T23:21:43.081Z,55.20
2022-08-11T23:27:00.069Z,55.70
2022-08-11T23:32:17.087Z,55.70
2022-08-11T23:37:32.426Z,56.30
2022-08-11T23:42:47.768Z,56.40
2022-08-11T23:48:05.535Z,56.60
2022-08-11T23:53:22.382Z,57.70
2022-08-11T23:58:37.888Z,57.50
